sensor_id;sensor_type;location;lat;lon;timestamp;P1;durP1;ratioP1;P2;durP2;ratioP2
52878;SDS011;38747;53.140;6.498;2023-07-29T00:16:51;8.97;;;5.00;;
52878;SDS011;38747;53.140;6.498;2023-07-29T00:19:16;14.45;;;5.10;;
52878;SDS011;38747;53.140;6.498;2023-07-29T00:21:42;8.50;;;5.03;;
52878;SDS011;38747;53.140;6.498;2023-07-29T00:24:08;8.32;;;4.90;;
52878;SDS011;38747;53.140;6.498;2023-07-29T00:26:33;9.20;;;4.67;;
52878;SDS011;38747;53.140;6.498;2023-07-29T00:28:59;8.63;;;4.97;;
52878;SDS011;38747;53.140;6.498;2023-07-29T00:31:25;8.33;;;4.47;;
52878;SDS011;38747;53.140;6.498;2023-07-29T00:33:50;9.95;;;5.10;;
52878;SDS011;38747;53.140;6.498;2023-07-29T00:36:17;9.37;;;4.67;;
52878;SDS011;38747;53.140;6.498;2023-07-29T00:38:43;10.65;;;4.93;;
52878;SDS011;38747;53.140;6.498;2023-07-29T00:41:09;9.33;;;4.90;;
52878;SDS011;38747;53.140;6.498;2023-07-29T00:43:38;10.13;;;4.82;;
52878;SDS011;38747;53.140;6.498;2023-07-29T00:46:04;8.55;;;4.70;;
52878;SDS011;38747;53.140;6.498;2023-07-29T00:48:30;8.43;;;4.57;;
52878;SDS011;38747;53.140;6.498;2023-07-29T00:50:56;10.67;;;4.63;;
52878;SDS011;38747;53.140;6.498;2023-07-29T00:53:22;8.15;;;5.07;;
52878;SDS011;38747;53.140;6.498;2023-07-29T00:55:48;10.13;;;5.00;;
52878;SDS011;38747;53.140;6.498;2023-07-29T00:58:13;10.68;;;4.90;;
52878;SDS011;38747;53.140;6.498;2023-07-29T01:00:39;8.80;;;4.80;;
52878;SDS011;38747;53.140;6.498;2023-07-29T01:03:05;8.57;;;4.97;;
52878;SDS011;38747;53.140;6.498;2023-07-29T01:05:32;8.40;;;4.30;;
52878;SDS011;38747;53.140;6.498;2023-07-29T01:08:21;8.43;;;4.82;;
52878;SDS011;38747;53.140;6.498;2023-07-29T01:11:23;8.38;;;5.00;;
52878;SDS011;38747;53.140;6.498;2023-07-29T01:14:36;8.80;;;4.47;;
52878;SDS011;38747;53.140;6.498;2023-07-29T01:17:13;9.50;;;4.85;;
52878;SDS011;38747;53.140;6.498;2023-07-29T01:22:20;9.43;;;4.93;;
52878;SDS011;38747;53.140;6.498;2023-07-29T01:24:46;9.35;;;4.68;;
52878;SDS011;38747;53.140;6.498;2023-07-29T01:27:12;8.10;;;4.37;;
52878;SDS011;38747;53.140;6.498;2023-07-29T01:29:38;8.95;;;3.90;;
52878;SDS011;38747;53.140;6.498;2023-07-29T01:32:05;8.63;;;4.33;;
52878;SDS011;38747;53.140;6.498;2023-07-29T01:34:39;8.18;;;4.25;;
52878;SDS011;38747;53.140;6.498;2023-07-29T01:37:14;7.78;;;4.20;;
52878;SDS011;38747;53.140;6.498;2023-07-29T01:39:44;9.27;;;4.03;;
52878;SDS011;38747;53.140;6.498;2023-07-29T01:42:11;9.60;;;4.63;;
52878;SDS011;38747;53.140;6.498;2023-07-29T01:44:37;9.67;;;4.57;;
52878;SDS011;38747;53.140;6.498;2023-07-29T01:47:03;9.63;;;4.15;;
52878;SDS011;38747;53.140;6.498;2023-07-29T01:49:28;10.40;;;4.37;;
52878;SDS011;38747;53.140;6.498;2023-07-29T01:51:54;8.48;;;4.28;;
52878;SDS011;38747;53.140;6.498;2023-07-29T01:54:20;8.03;;;4.13;;
52878;SDS011;38747;53.140;6.498;2023-07-29T01:56:45;9.23;;;3.92;;
52878;SDS011;38747;53.140;6.498;2023-07-29T01:59:11;9.40;;;4.80;;
52878;SDS011;38747;53.140;6.498;2023-07-29T02:01:38;8.93;;;4.75;;
52878;SDS011;38747;53.140;6.498;2023-07-29T02:04:04;8.10;;;4.50;;
52878;SDS011;38747;53.140;6.498;2023-07-29T02:06:29;8.50;;;4.43;;
52878;SDS011;38747;53.140;6.498;2023-07-29T02:08:55;8.80;;;4.50;;
52878;SDS011;38747;53.140;6.498;2023-07-29T02:11:21;9.35;;;4.90;;
52878;SDS011;38747;53.140;6.498;2023-07-29T02:13:52;8.57;;;4.63;;
52878;SDS011;38747;53.140;6.498;2023-07-29T02:16:18;9.13;;;4.50;;
52878;SDS011;38747;53.140;6.498;2023-07-29T02:18:45;9.43;;;4.97;;
52878;SDS011;38747;53.140;6.498;2023-07-29T02:21:10;8.25;;;4.57;;
52878;SDS011;38747;53.140;6.498;2023-07-29T02:23:36;8.83;;;4.70;;
52878;SDS011;38747;53.140;6.498;2023-07-29T02:26:04;10.93;;;4.78;;
52878;SDS011;38747;53.140;6.498;2023-07-29T02:28:30;9.10;;;4.77;;
52878;SDS011;38747;53.140;6.498;2023-07-29T02:33:42;8.40;;;4.70;;
52878;SDS011;38747;53.140;6.498;2023-07-29T02:36:08;10.05;;;5.03;;
52878;SDS011;38747;53.140;6.498;2023-07-29T02:38:34;9.17;;;4.87;;
52878;SDS011;38747;53.140;6.498;2023-07-29T02:41:00;9.38;;;4.70;;
52878;SDS011;38747;53.140;6.498;2023-07-29T02:43:25;11.47;;;5.27;;
52878;SDS011;38747;53.140;6.498;2023-07-29T02:45:51;8.43;;;4.45;;
52878;SDS011;38747;53.140;6.498;2023-07-29T02:48:17;11.70;;;4.83;;
52878;SDS011;38747;53.140;6.498;2023-07-29T02:50:42;8.38;;;4.57;;
52878;SDS011;38747;53.140;6.498;2023-07-29T02:53:08;8.47;;;4.47;;
52878;SDS011;38747;53.140;6.498;2023-07-29T02:55:33;8.43;;;4.60;;
52878;SDS011;38747;53.140;6.498;2023-07-29T02:57:59;9.53;;;4.40;;
52878;SDS011;38747;53.140;6.498;2023-07-29T03:00:25;9.80;;;4.25;;
52878;SDS011;38747;53.140;6.498;2023-07-29T03:02:50;10.03;;;4.70;;
52878;SDS011;38747;53.140;6.498;2023-07-29T03:05:16;10.45;;;5.20;;
52878;SDS011;38747;53.140;6.498;2023-07-29T03:07:42;10.37;;;4.30;;
52878;SDS011;38747;53.140;6.498;2023-07-29T03:10:08;8.50;;;4.43;;
52878;SDS011;38747;53.140;6.498;2023-07-29T03:12:36;9.85;;;4.80;;
52878;SDS011;38747;53.140;6.498;2023-07-29T03:15:01;8.50;;;4.10;;
52878;SDS011;38747;53.140;6.498;2023-07-29T03:17:27;9.43;;;4.38;;
52878;SDS011;38747;53.140;6.498;2023-07-29T03:19:53;8.87;;;4.60;;
52878;SDS011;38747;53.140;6.498;2023-07-29T03:22:18;9.90;;;4.70;;
52878;SDS011;38747;53.140;6.498;2023-07-29T03:24:44;8.63;;;4.07;;
52878;SDS011;38747;53.140;6.498;2023-07-29T03:27:10;9.10;;;3.93;;
52878;SDS011;38747;53.140;6.498;2023-07-29T03:29:35;8.07;;;3.87;;
52878;SDS011;38747;53.140;6.498;2023-07-29T03:32:01;7.90;;;4.20;;
52878;SDS011;38747;53.140;6.498;2023-07-29T03:34:27;8.87;;;4.10;;
52878;SDS011;38747;53.140;6.498;2023-07-29T03:36:52;7.90;;;3.80;;
52878;SDS011;38747;53.140;6.498;2023-07-29T03:39:18;9.77;;;3.93;;
52878;SDS011;38747;53.140;6.498;2023-07-29T03:41:44;11.73;;;4.18;;
52878;SDS011;38747;53.140;6.498;2023-07-29T03:44:09;8.00;;;3.87;;
52878;SDS011;38747;53.140;6.498;2023-07-29T03:46:35;9.90;;;4.32;;
52878;SDS011;38747;53.140;6.498;2023-07-29T03:49:01;8.37;;;4.30;;
52878;SDS011;38747;53.140;6.498;2023-07-29T03:51:26;9.88;;;3.88;;
52878;SDS011;38747;53.140;6.498;2023-07-29T03:53:52;7.97;;;3.87;;
52878;SDS011;38747;53.140;6.498;2023-07-29T03:56:17;8.90;;;3.78;;
52878;SDS011;38747;53.140;6.498;2023-07-29T03:58:43;9.83;;;4.10;;
52878;SDS011;38747;53.140;6.498;2023-07-29T04:01:10;8.52;;;4.25;;
52878;SDS011;38747;53.140;6.498;2023-07-29T04:03:36;8.60;;;3.90;;
52878;SDS011;38747;53.140;6.498;2023-07-29T04:06:01;7.43;;;3.63;;
52878;SDS011;38747;53.140;6.498;2023-07-29T04:08:27;8.80;;;4.17;;
52878;SDS011;38747;53.140;6.498;2023-07-29T04:10:52;8.60;;;4.00;;
52878;SDS011;38747;53.140;6.498;2023-07-29T04:13:18;8.90;;;3.90;;
52878;SDS011;38747;53.140;6.498;2023-07-29T04:15:44;9.75;;;3.60;;
52878;SDS011;38747;53.140;6.498;2023-07-29T04:18:10;8.80;;;4.00;;
52878;SDS011;38747;53.140;6.498;2023-07-29T04:20:36;8.45;;;4.00;;
52878;SDS011;38747;53.140;6.498;2023-07-29T04:23:01;8.93;;;3.53;;
52878;SDS011;38747;53.140;6.498;2023-07-29T04:25:27;7.57;;;3.35;;
52878;SDS011;38747;53.140;6.498;2023-07-29T04:27:53;7.35;;;3.30;;
52878;SDS011;38747;53.140;6.498;2023-07-29T04:30:19;8.10;;;3.10;;
52878;SDS011;38747;53.140;6.498;2023-07-29T04:32:44;8.45;;;3.60;;
52878;SDS011;38747;53.140;6.498;2023-07-29T04:35:13;8.23;;;3.20;;
52878;SDS011;38747;53.140;6.498;2023-07-29T04:37:39;6.20;;;2.93;;
52878;SDS011;38747;53.140;6.498;2023-07-29T04:40:05;8.25;;;3.03;;
52878;SDS011;38747;53.140;6.498;2023-07-29T04:42:31;6.72;;;2.88;;
52878;SDS011;38747;53.140;6.498;2023-07-29T04:44:57;8.40;;;2.80;;
52878;SDS011;38747;53.140;6.498;2023-07-29T04:47:23;8.53;;;2.70;;
52878;SDS011;38747;53.140;6.498;2023-07-29T04:49:49;5.82;;;2.50;;
52878;SDS011;38747;53.140;6.498;2023-07-29T04:52:14;7.23;;;2.80;;
52878;SDS011;38747;53.140;6.498;2023-07-29T04:54:40;7.05;;;2.70;;
52878;SDS011;38747;53.140;6.498;2023-07-29T04:57:06;6.77;;;2.40;;
52878;SDS011;38747;53.140;6.498;2023-07-29T04:59:31;6.55;;;2.40;;
52878;SDS011;38747;53.140;6.498;2023-07-29T05:01:57;9.13;;;2.50;;
52878;SDS011;38747;53.140;6.498;2023-07-29T05:04:23;6.32;;;2.28;;
52878;SDS011;38747;53.140;6.498;2023-07-29T05:06:48;6.77;;;2.27;;
52878;SDS011;38747;53.140;6.498;2023-07-29T05:09:16;6.97;;;2.30;;
52878;SDS011;38747;53.140;6.498;2023-07-29T05:11:45;4.65;;;1.95;;
52878;SDS011;38747;53.140;6.498;2023-07-29T05:14:16;6.57;;;2.35;;
52878;SDS011;38747;53.140;6.498;2023-07-29T05:16:42;6.27;;;2.33;;
52878;SDS011;38747;53.140;6.498;2023-07-29T05:19:09;5.90;;;2.10;;
52878;SDS011;38747;53.140;6.498;2023-07-29T05:21:35;5.50;;;2.10;;
52878;SDS011;38747;53.140;6.498;2023-07-29T05:24:01;8.57;;;2.25;;
52878;SDS011;38747;53.140;6.498;2023-07-29T05:26:27;6.03;;;2.10;;
52878;SDS011;38747;53.140;6.498;2023-07-29T05:28:53;6.47;;;2.20;;
52878;SDS011;38747;53.140;6.498;2023-07-29T05:31:19;6.20;;;2.10;;
52878;SDS011;38747;53.140;6.498;2023-07-29T05:33:44;7.50;;;1.92;;
52878;SDS011;38747;53.140;6.498;2023-07-29T05:36:10;7.30;;;1.90;;
52878;SDS011;38747;53.140;6.498;2023-07-29T05:38:36;6.00;;;1.80;;
52878;SDS011;38747;53.140;6.498;2023-07-29T05:41:01;5.30;;;1.80;;
52878;SDS011;38747;53.140;6.498;2023-07-29T05:43:27;6.28;;;1.90;;
52878;SDS011;38747;53.140;6.498;2023-07-29T05:45:53;5.35;;;1.83;;
52878;SDS011;38747;53.140;6.498;2023-07-29T05:48:19;5.50;;;1.80;;
52878;SDS011;38747;53.140;6.498;2023-07-29T05:50:45;5.35;;;2.33;;
52878;SDS011;38747;53.140;6.498;2023-07-29T05:53:11;6.78;;;2.00;;
52878;SDS011;38747;53.140;6.498;2023-07-29T05:55:36;5.23;;;2.00;;
52878;SDS011;38747;53.140;6.498;2023-07-29T05:58:02;5.87;;;1.97;;
52878;SDS011;38747;53.140;6.498;2023-07-29T06:00:28;5.07;;;1.90;;
52878;SDS011;38747;53.140;6.498;2023-07-29T06:02:53;6.03;;;2.10;;
52878;SDS011;38747;53.140;6.498;2023-07-29T06:05:19;6.10;;;2.08;;
52878;SDS011;38747;53.140;6.498;2023-07-29T06:07:44;5.67;;;1.90;;
52878;SDS011;38747;53.140;6.498;2023-07-29T06:10:12;7.13;;;1.90;;
52878;SDS011;38747;53.140;6.498;2023-07-29T06:12:42;4.88;;;1.80;;
52878;SDS011;38747;53.140;6.498;2023-07-29T06:15:08;5.75;;;1.65;;
52878;SDS011;38747;53.140;6.498;2023-07-29T06:17:34;6.37;;;2.17;;
52878;SDS011;38747;53.140;6.498;2023-07-29T06:20:00;5.43;;;1.80;;
52878;SDS011;38747;53.140;6.498;2023-07-29T06:22:25;10.05;;;1.90;;
52878;SDS011;38747;53.140;6.498;2023-07-29T06:24:51;6.27;;;2.10;;
52878;SDS011;38747;53.140;6.498;2023-07-29T06:27:17;7.50;;;2.00;;
52878;SDS011;38747;53.140;6.498;2023-07-29T06:29:42;5.70;;;1.77;;
52878;SDS011;38747;53.140;6.498;2023-07-29T06:32:08;6.38;;;2.22;;
52878;SDS011;38747;53.140;6.498;2023-07-29T06:34:34;6.20;;;1.80;;
52878;SDS011;38747;53.140;6.498;2023-07-29T06:36:59;6.10;;;1.90;;
52878;SDS011;38747;53.140;6.498;2023-07-29T06:39:25;6.68;;;2.20;;
52878;SDS011;38747;53.140;6.498;2023-07-29T06:41:51;5.70;;;2.13;;
52878;SDS011;38747;53.140;6.498;2023-07-29T06:44:16;5.65;;;1.80;;
52878;SDS011;38747;53.140;6.498;2023-07-29T06:46:42;6.23;;;2.13;;
52878;SDS011;38747;53.140;6.498;2023-07-29T06:49:07;6.77;;;1.60;;
52878;SDS011;38747;53.140;6.498;2023-07-29T06:51:33;5.00;;;2.10;;
52878;SDS011;38747;53.140;6.498;2023-07-29T06:54:00;5.63;;;1.77;;
52878;SDS011;38747;53.140;6.498;2023-07-29T06:56:26;8.30;;;2.30;;
52878;SDS011;38747;53.140;6.498;2023-07-29T06:58:52;5.50;;;1.80;;
52878;SDS011;38747;53.140;6.498;2023-07-29T07:01:18;6.32;;;2.35;;
52878;SDS011;38747;53.140;6.498;2023-07-29T07:03:43;7.27;;;1.80;;
52878;SDS011;38747;53.140;6.498;2023-07-29T07:06:09;7.43;;;2.28;;
52878;SDS011;38747;53.140;6.498;2023-07-29T07:08:35;7.57;;;1.90;;
52878;SDS011;38747;53.140;6.498;2023-07-29T07:11:00;7.72;;;2.45;;
52878;SDS011;38747;53.140;6.498;2023-07-29T07:13:26;7.23;;;2.70;;
52878;SDS011;38747;53.140;6.498;2023-07-29T07:15:55;6.65;;;2.25;;
52878;SDS011;38747;53.140;6.498;2023-07-29T07:18:21;7.43;;;2.40;;
52878;SDS011;38747;53.140;6.498;2023-07-29T07:20:49;5.43;;;1.90;;
52878;SDS011;38747;53.140;6.498;2023-07-29T07:23:16;8.10;;;2.20;;
52878;SDS011;38747;53.140;6.498;2023-07-29T07:25:42;8.05;;;2.40;;
52878;SDS011;38747;53.140;6.498;2023-07-29T07:28:08;6.50;;;2.37;;
52878;SDS011;38747;53.140;6.498;2023-07-29T07:30:34;5.93;;;2.60;;
52878;SDS011;38747;53.140;6.498;2023-07-29T07:33:00;6.97;;;2.60;;
52878;SDS011;38747;53.140;6.498;2023-07-29T07:35:26;8.30;;;2.80;;
52878;SDS011;38747;53.140;6.498;2023-07-29T07:37:52;8.60;;;2.97;;
52878;SDS011;38747;53.140;6.498;2023-07-29T07:40:17;8.37;;;2.87;;
52878;SDS011;38747;53.140;6.498;2023-07-29T07:42:43;9.17;;;2.90;;
52878;SDS011;38747;53.140;6.498;2023-07-29T07:45:08;9.43;;;2.60;;
52878;SDS011;38747;53.140;6.498;2023-07-29T07:47:34;7.63;;;2.88;;
52878;SDS011;38747;53.140;6.498;2023-07-29T07:50:00;7.88;;;3.10;;
52878;SDS011;38747;53.140;6.498;2023-07-29T07:52:26;9.93;;;3.60;;
52878;SDS011;38747;53.140;6.498;2023-07-29T07:54:53;8.23;;;3.15;;
52878;SDS011;38747;53.140;6.498;2023-07-29T07:57:22;7.38;;;2.80;;
52878;SDS011;38747;53.140;6.498;2023-07-29T07:59:48;8.30;;;3.10;;
52878;SDS011;38747;53.140;6.498;2023-07-29T08:02:14;8.00;;;2.87;;
52878;SDS011;38747;53.140;6.498;2023-07-29T08:04:39;7.72;;;2.92;;
52878;SDS011;38747;53.140;6.498;2023-07-29T08:07:05;7.47;;;2.80;;
52878;SDS011;38747;53.140;6.498;2023-07-29T08:09:31;10.27;;;2.97;;
52878;SDS011;38747;53.140;6.498;2023-07-29T08:11:56;7.07;;;2.93;;
52878;SDS011;38747;53.140;6.498;2023-07-29T08:14:22;8.45;;;2.97;;
52878;SDS011;38747;53.140;6.498;2023-07-29T08:16:48;6.60;;;2.37;;
52878;SDS011;38747;53.140;6.498;2023-07-29T08:19:13;6.25;;;2.30;;
52878;SDS011;38747;53.140;6.498;2023-07-29T08:21:39;8.30;;;2.20;;
52878;SDS011;38747;53.140;6.498;2023-07-29T08:24:05;5.85;;;2.30;;
52878;SDS011;38747;53.140;6.498;2023-07-29T08:26:32;5.95;;;2.30;;
52878;SDS011;38747;53.140;6.498;2023-07-29T08:28:58;7.87;;;2.47;;
52878;SDS011;38747;53.140;6.498;2023-07-29T08:31:23;6.07;;;2.10;;
52878;SDS011;38747;53.140;6.498;2023-07-29T08:33:49;6.33;;;1.90;;
52878;SDS011;38747;53.140;6.498;2023-07-29T08:36:15;5.75;;;2.15;;
52878;SDS011;38747;53.140;6.498;2023-07-29T08:38:41;6.10;;;1.97;;
52878;SDS011;38747;53.140;6.498;2023-07-29T08:43:42;6.75;;;2.03;;
52878;SDS011;38747;53.140;6.498;2023-07-29T08:46:13;6.60;;;1.83;;
52878;SDS011;38747;53.140;6.498;2023-07-29T08:48:41;7.10;;;2.10;;
52878;SDS011;38747;53.140;6.498;2023-07-29T08:51:08;6.63;;;1.98;;
52878;SDS011;38747;53.140;6.498;2023-07-29T08:53:35;6.35;;;1.90;;
52878;SDS011;38747;53.140;6.498;2023-07-29T08:56:02;7.93;;;2.03;;
52878;SDS011;38747;53.140;6.498;2023-07-29T08:58:28;6.13;;;1.93;;
52878;SDS011;38747;53.140;6.498;2023-07-29T09:00:54;5.70;;;1.75;;
52878;SDS011;38747;53.140;6.498;2023-07-29T09:03:20;6.07;;;1.90;;
52878;SDS011;38747;53.140;6.498;2023-07-29T09:05:46;7.22;;;1.80;;
52878;SDS011;38747;53.140;6.498;2023-07-29T09:08:13;6.05;;;1.90;;
52878;SDS011;38747;53.140;6.498;2023-07-29T09:10:39;5.07;;;1.70;;
52878;SDS011;38747;53.140;6.498;2023-07-29T09:13:06;6.68;;;1.67;;
52878;SDS011;38747;53.140;6.498;2023-07-29T09:15:33;5.28;;;1.38;;
52878;SDS011;38747;53.140;6.498;2023-07-29T09:18:10;4.75;;;1.35;;
52878;SDS011;38747;53.140;6.498;2023-07-29T09:20:37;8.25;;;1.65;;
52878;SDS011;38747;53.140;6.498;2023-07-29T09:23:03;6.10;;;1.33;;
52878;SDS011;38747;53.140;6.498;2023-07-29T09:25:33;4.32;;;1.25;;
52878;SDS011;38747;53.140;6.498;2023-07-29T09:27:59;3.57;;;1.20;;
52878;SDS011;38747;53.140;6.498;2023-07-29T09:30:26;5.03;;;1.38;;
52878;SDS011;38747;53.140;6.498;2023-07-29T09:32:56;5.63;;;1.30;;
52878;SDS011;38747;53.140;6.498;2023-07-29T09:35:26;4.97;;;1.27;;
52878;SDS011;38747;53.140;6.498;2023-07-29T09:37:53;5.53;;;1.45;;
52878;SDS011;38747;53.140;6.498;2023-07-29T09:40:19;4.30;;;1.50;;
52878;SDS011;38747;53.140;6.498;2023-07-29T09:42:49;7.10;;;1.60;;
52878;SDS011;38747;53.140;6.498;2023-07-29T09:45:25;5.18;;;1.60;;
52878;SDS011;38747;53.140;6.498;2023-07-29T09:47:52;4.20;;;1.30;;
52878;SDS011;38747;53.140;6.498;2023-07-29T09:50:25;6.95;;;1.83;;
52878;SDS011;38747;53.140;6.498;2023-07-29T09:52:51;4.72;;;1.40;;
52878;SDS011;38747;53.140;6.498;2023-07-29T09:55:18;4.82;;;1.30;;
52878;SDS011;38747;53.140;6.498;2023-07-29T09:57:46;6.68;;;1.33;;
52878;SDS011;38747;53.140;6.498;2023-07-29T10:00:12;4.40;;;1.30;;
52878;SDS011;38747;53.140;6.498;2023-07-29T10:02:39;5.28;;;1.40;;
52878;SDS011;38747;53.140;6.498;2023-07-29T10:05:06;6.57;;;1.30;;
52878;SDS011;38747;53.140;6.498;2023-07-29T10:07:34;4.40;;;1.50;;
52878;SDS011;38747;53.140;6.498;2023-07-29T10:10:02;4.60;;;1.20;;
52878;SDS011;38747;53.140;6.498;2023-07-29T10:12:30;4.43;;;1.20;;
52878;SDS011;38747;53.140;6.498;2023-07-29T10:15:01;4.35;;;1.30;;
52878;SDS011;38747;53.140;6.498;2023-07-29T10:17:35;3.75;;;1.40;;
52878;SDS011;38747;53.140;6.498;2023-07-29T10:20:05;3.65;;;1.33;;
52878;SDS011;38747;53.140;6.498;2023-07-29T10:22:39;5.47;;;1.30;;
52878;SDS011;38747;53.140;6.498;2023-07-29T10:25:16;4.65;;;1.20;;
52878;SDS011;38747;53.140;6.498;2023-07-29T10:27:47;6.00;;;1.70;;
52878;SDS011;38747;53.140;6.498;2023-07-29T10:30:28;5.30;;;1.10;;
52878;SDS011;38747;53.140;6.498;2023-07-29T10:32:54;4.87;;;1.37;;
52878;SDS011;38747;53.140;6.498;2023-07-29T10:35:23;4.60;;;1.45;;
52878;SDS011;38747;53.140;6.498;2023-07-29T10:37:50;6.32;;;1.77;;
52878;SDS011;38747;53.140;6.498;2023-07-29T10:40:18;6.22;;;1.50;;
52878;SDS011;38747;53.140;6.498;2023-07-29T10:43:00;4.30;;;1.33;;
52878;SDS011;38747;53.140;6.498;2023-07-29T10:45:28;3.90;;;1.40;;
52878;SDS011;38747;53.140;6.498;2023-07-29T10:48:05;5.40;;;1.33;;
52878;SDS011;38747;53.140;6.498;2023-07-29T10:50:33;5.28;;;1.40;;
52878;SDS011;38747;53.140;6.498;2023-07-29T10:53:00;4.80;;;1.20;;
52878;SDS011;38747;53.140;6.498;2023-07-29T10:55:29;6.10;;;1.67;;
52878;SDS011;38747;53.140;6.498;2023-07-29T10:58:09;6.70;;;1.70;;
52878;SDS011;38747;53.140;6.498;2023-07-29T11:00:39;6.25;;;1.75;;
52878;SDS011;38747;53.140;6.498;2023-07-29T11:03:06;5.20;;;1.58;;
52878;SDS011;38747;53.140;6.498;2023-07-29T11:05:46;4.27;;;1.10;;
52878;SDS011;38747;53.140;6.498;2023-07-29T11:11:00;3.58;;;1.20;;
52878;SDS011;38747;53.140;6.498;2023-07-29T11:13:27;3.80;;;1.60;;
52878;SDS011;38747;53.140;6.498;2023-07-29T11:15:54;8.18;;;2.13;;
52878;SDS011;38747;53.140;6.498;2023-07-29T11:18:20;2.83;;;1.10;;
52878;SDS011;38747;53.140;6.498;2023-07-29T11:20:46;6.05;;;1.48;;
52878;SDS011;38747;53.140;6.498;2023-07-29T11:23:13;3.45;;;1.48;;
52878;SDS011;38747;53.140;6.498;2023-07-29T11:25:38;4.30;;;1.30;;
52878;SDS011;38747;53.140;6.498;2023-07-29T11:28:04;4.97;;;1.40;;
52878;SDS011;38747;53.140;6.498;2023-07-29T11:30:30;4.70;;;1.17;;
52878;SDS011;38747;53.140;6.498;2023-07-29T11:32:57;3.63;;;1.23;;
52878;SDS011;38747;53.140;6.498;2023-07-29T11:35:23;4.93;;;1.60;;
52878;SDS011;38747;53.140;6.498;2023-07-29T11:37:49;4.93;;;1.77;;
52878;SDS011;38747;53.140;6.498;2023-07-29T11:40:21;4.65;;;1.50;;
52878;SDS011;38747;53.140;6.498;2023-07-29T11:42:48;3.55;;;1.40;;
52878;SDS011;38747;53.140;6.498;2023-07-29T11:45:17;6.07;;;1.67;;
52878;SDS011;38747;53.140;6.498;2023-07-29T11:47:44;4.60;;;1.60;;
52878;SDS011;38747;53.140;6.498;2023-07-29T11:50:11;5.72;;;1.35;;
52878;SDS011;38747;53.140;6.498;2023-07-29T11:52:41;6.00;;;1.73;;
52878;SDS011;38747;53.140;6.498;2023-07-29T11:55:11;6.05;;;1.50;;
52878;SDS011;38747;53.140;6.498;2023-07-29T11:57:38;5.93;;;1.50;;
52878;SDS011;38747;53.140;6.498;2023-07-29T12:00:05;4.90;;;1.40;;
52878;SDS011;38747;53.140;6.498;2023-07-29T12:02:32;6.00;;;1.50;;
52878;SDS011;38747;53.140;6.498;2023-07-29T12:05:02;5.78;;;1.50;;
52878;SDS011;38747;53.140;6.498;2023-07-29T12:07:29;6.32;;;1.63;;
52878;SDS011;38747;53.140;6.498;2023-07-29T12:09:55;4.30;;;1.70;;
52878;SDS011;38747;53.140;6.498;2023-07-29T12:12:22;4.30;;;1.50;;
52878;SDS011;38747;53.140;6.498;2023-07-29T12:14:48;6.32;;;1.70;;
52878;SDS011;38747;53.140;6.498;2023-07-29T12:17:14;5.15;;;1.67;;
52878;SDS011;38747;53.140;6.498;2023-07-29T12:19:40;4.67;;;1.60;;
52878;SDS011;38747;53.140;6.498;2023-07-29T12:22:08;4.40;;;1.60;;
52878;SDS011;38747;53.140;6.498;2023-07-29T12:24:35;4.18;;;1.60;;
52878;SDS011;38747;53.140;6.498;2023-07-29T12:27:02;4.95;;;1.65;;
52878;SDS011;38747;53.140;6.498;2023-07-29T12:29:28;8.93;;;2.53;;
52878;SDS011;38747;53.140;6.498;2023-07-29T12:32:03;5.40;;;1.88;;
52878;SDS011;38747;53.140;6.498;2023-07-29T12:34:29;5.75;;;1.60;;
52878;SDS011;38747;53.140;6.498;2023-07-29T12:36:56;4.75;;;1.50;;
52878;SDS011;38747;53.140;6.498;2023-07-29T12:39:27;4.77;;;1.70;;
52878;SDS011;38747;53.140;6.498;2023-07-29T12:41:55;5.43;;;1.60;;
52878;SDS011;38747;53.140;6.498;2023-07-29T12:44:23;5.00;;;1.60;;
52878;SDS011;38747;53.140;6.498;2023-07-29T12:46:50;6.45;;;1.60;;
52878;SDS011;38747;53.140;6.498;2023-07-29T12:49:17;6.63;;;1.60;;
52878;SDS011;38747;53.140;6.498;2023-07-29T12:51:43;4.80;;;1.40;;
52878;SDS011;38747;53.140;6.498;2023-07-29T12:54:08;4.15;;;1.38;;
52878;SDS011;38747;53.140;6.498;2023-07-29T12:56:34;4.30;;;1.70;;
52878;SDS011;38747;53.140;6.498;2023-07-29T12:59:00;3.40;;;1.05;;
52878;SDS011;38747;53.140;6.498;2023-07-29T13:01:27;5.20;;;1.45;;
52878;SDS011;38747;53.140;6.498;2023-07-29T13:03:53;5.15;;;1.58;;
52878;SDS011;38747;53.140;6.498;2023-07-29T13:06:19;4.65;;;1.48;;
52878;SDS011;38747;53.140;6.498;2023-07-29T13:08:46;5.27;;;1.30;;
52878;SDS011;38747;53.140;6.498;2023-07-29T13:11:12;5.32;;;1.50;;
52878;SDS011;38747;53.140;6.498;2023-07-29T13:13:38;4.40;;;1.30;;
52878;SDS011;38747;53.140;6.498;2023-07-29T13:16:04;4.43;;;1.40;;
52878;SDS011;38747;53.140;6.498;2023-07-29T13:18:30;9.35;;;1.90;;
52878;SDS011;38747;53.140;6.498;2023-07-29T13:20:57;6.73;;;1.90;;
52878;SDS011;38747;53.140;6.498;2023-07-29T13:23:22;6.57;;;1.50;;
52878;SDS011;38747;53.140;6.498;2023-07-29T13:25:49;9.93;;;1.70;;
52878;SDS011;38747;53.140;6.498;2023-07-29T13:28:15;7.63;;;1.77;;
52878;SDS011;38747;53.140;6.498;2023-07-29T13:30:41;5.60;;;1.50;;
52878;SDS011;38747;53.140;6.498;2023-07-29T13:33:07;6.47;;;1.90;;
52878;SDS011;38747;53.140;6.498;2023-07-29T13:35:33;4.70;;;1.60;;
52878;SDS011;38747;53.140;6.498;2023-07-29T13:37:59;6.32;;;1.70;;
52878;SDS011;38747;53.140;6.498;2023-07-29T13:40:25;4.55;;;1.45;;
52878;SDS011;38747;53.140;6.498;2023-07-29T13:42:51;4.67;;;1.67;;
52878;SDS011;38747;53.140;6.498;2023-07-29T13:45:17;5.70;;;1.60;;
52878;SDS011;38747;53.140;6.498;2023-07-29T13:47:43;8.32;;;2.30;;
52878;SDS011;38747;53.140;6.498;2023-07-29T13:50:09;8.20;;;1.90;;
52878;SDS011;38747;53.140;6.498;2023-07-29T13:52:35;6.88;;;1.90;;
52878;SDS011;38747;53.140;6.498;2023-07-29T13:55:02;5.80;;;1.73;;
52878;SDS011;38747;53.140;6.498;2023-07-29T13:57:28;6.32;;;1.80;;
52878;SDS011;38747;53.140;6.498;2023-07-29T13:59:54;6.20;;;1.70;;
52878;SDS011;38747;53.140;6.498;2023-07-29T14:02:20;5.87;;;1.80;;
52878;SDS011;38747;53.140;6.498;2023-07-29T14:04:45;4.57;;;1.70;;
52878;SDS011;38747;53.140;6.498;2023-07-29T14:07:11;10.27;;;2.10;;
52878;SDS011;38747;53.140;6.498;2023-07-29T14:09:37;7.35;;;1.80;;
52878;SDS011;38747;53.140;6.498;2023-07-29T14:12:03;5.45;;;1.80;;
52878;SDS011;38747;53.140;6.498;2023-07-29T14:14:29;6.53;;;2.07;;
52878;SDS011;38747;53.140;6.498;2023-07-29T14:16:55;6.93;;;1.80;;
52878;SDS011;38747;53.140;6.498;2023-07-29T14:19:21;7.95;;;2.13;;
52878;SDS011;38747;53.140;6.498;2023-07-29T14:21:47;6.60;;;1.97;;
52878;SDS011;38747;53.140;6.498;2023-07-29T14:24:13;5.25;;;1.83;;
52878;SDS011;38747;53.140;6.498;2023-07-29T14:26:40;7.47;;;1.90;;
52878;SDS011;38747;53.140;6.498;2023-07-29T14:29:06;5.22;;;1.70;;
52878;SDS011;38747;53.140;6.498;2023-07-29T14:31:32;6.83;;;1.70;;
52878;SDS011;38747;53.140;6.498;2023-07-29T14:33:57;4.68;;;1.55;;
52878;SDS011;38747;53.140;6.498;2023-07-29T14:36:24;4.83;;;1.80;;
52878;SDS011;38747;53.140;6.498;2023-07-29T14:38:50;6.18;;;1.50;;
52878;SDS011;38747;53.140;6.498;2023-07-29T14:41:15;6.83;;;1.60;;
52878;SDS011;38747;53.140;6.498;2023-07-29T14:43:44;7.20;;;1.80;;
52878;SDS011;38747;53.140;6.498;2023-07-29T14:46:09;5.68;;;1.70;;
52878;SDS011;38747;53.140;6.498;2023-07-29T14:48:35;4.20;;;1.50;;
52878;SDS011;38747;53.140;6.498;2023-07-29T14:51:01;6.32;;;1.50;;
52878;SDS011;38747;53.140;6.498;2023-07-29T14:53:26;5.23;;;1.50;;
52878;SDS011;38747;53.140;6.498;2023-07-29T14:55:52;4.85;;;1.42;;
52878;SDS011;38747;53.140;6.498;2023-07-29T14:58:19;4.97;;;1.40;;
52878;SDS011;38747;53.140;6.498;2023-07-29T15:00:45;8.05;;;1.40;;
52878;SDS011;38747;53.140;6.498;2023-07-29T15:03:10;7.13;;;1.45;;
52878;SDS011;38747;53.140;6.498;2023-07-29T15:05:36;5.87;;;1.43;;
52878;SDS011;38747;53.140;6.498;2023-07-29T15:08:01;5.95;;;1.50;;
52878;SDS011;38747;53.140;6.498;2023-07-29T15:10:27;4.77;;;1.47;;
52878;SDS011;38747;53.140;6.498;2023-07-29T15:12:53;4.13;;;1.20;;